sensor_id;sensor_type;location;lat;lon;timestamp;pressure;altitude;pressure_sealevel;temperature;humidity
13015;BME280;6573;57.696;11.950;2024-03-07T14:34:49;102948.50;;;10.25;100.00
13015;BME280;6573;57.696;11.950;2024-03-07T14:37:35;102863.13;;;9.89;100.00
13015;BME280;6573;57.696;11.950;2024-03-07T14:40:21;102957.25;;;10.24;100.00
13015;BME280;6573;57.696;11.950;2024-03-07T14:42:55;102944.09;;;10.24;100.00
13015;BME280;6573;57.696;11.950;2024-03-07T14:45:27;102936.50;;;10.33;100.00
13015;BME280;6573;57.696;11.950;2024-03-07T14:47:59;102917.63;;;10.20;100.00
13015;BME280;6573;57.696;11.950;2024-03-07T14:50:32;102887.84;;;9.94;100.00
13015;BME280;6573;57.696;11.950;2024-03-07T14:53:02;102910.22;;;10.08;100.00
13015;BME280;6573;57.696;11.950;2024-03-07T14:55:32;102862.81;;;9.80;100.00
13015;BME280;6573;57.696;11.950;2024-03-07T14:58:03;102892.06;;;9.89;100.00
13015;BME280;6573;57.696;11.950;2024-03-07T15:00:33;102882.38;;;9.63;100.00
13015;BME280;6573;57.696;11.950;2024-03-07T15:03:30;102823.22;;;9.49;100.00
13015;BME280;6573;57.696;11.950;2024-03-07T15:06:29;102930.19;;;10.03;100.00
13015;BME280;6573;57.696;11.950;2024-03-07T15:08:59;102832.19;;;9.55;100.00
13015;BME280;6573;57.696;11.950;2024-03-07T15:11:38;102891.19;;;9.90;100.00
13015;BME280;6573;57.696;11.950;2024-03-07T15:14:11;102928.22;;;9.96;100.00
13015;BME280;6573;57.696;11.950;2024-03-07T15:16:43;102918.75;;;9.76;100.00
13015;BME280;6573;57.696;11.950;2024-03-07T15:19:14;102782.38;;;9.06;100.00
13015;BME280;6573;57.696;11.950;2024-03-07T15:21:45;102851.50;;;9.56;100.00
13015;BME280;6573;57.696;11.950;2024-03-07T15:24:17;102917.59;;;9.93;100.00
13015;BME280;6573;57.696;11.950;2024-03-07T15:26:50;102921.09;;;9.92;100.00
13015;BME280;6573;57.696;11.950;2024-03-07T15:29:21;102912.56;;;9.99;100.00
13015;BME280;6573;57.696;11.950;2024-03-07T15:31:50;102881.75;;;9.70;100.00
13015;BME280;6573;57.696;11.950;2024-03-07T15:34:31;102853.69;;;9.69;100.00
13015;BME280;6573;57.696;11.950;2024-03-07T15:37:12;102876.59;;;9.73;100.00
13015;BME280;6573;57.696;11.950;2024-03-07T15:39:43;102860.78;;;9.71;100.00
13015;BME280;6573;57.696;11.950;2024-03-07T15:42:16;102910.47;;;9.89;100.00
13015;BME280;6573;57.696;11.950;2024-03-07T15:44:46;102837.13;;;9.45;100.00
13015;BME280;6573;57.696;11.950;2024-03-07T15:47:22;102853.28;;;9.57;100.00
13015;BME280;6573;57.696;11.950;2024-03-07T15:49:55;102889.22;;;9.83;100.00
13015;BME280;6573;57.696;11.950;2024-03-07T15:52:50;102862.00;;;9.56;100.00
13015;BME280;6573;57.696;11.950;2024-03-07T15:55:36;102856.34;;;9.44;100.00
13015;BME280;6573;57.696;11.950;2024-03-07T15:58:32;102863.47;;;9.48;100.00
13015;BME280;6573;57.696;11.950;2024-03-07T16:01:35;102882.84;;;9.50;100.00
13015;BME280;6573;57.696;11.950;2024-03-07T16:04:05;102882.91;;;9.53;100.00
13015;BME280;6573;57.696;11.950;2024-03-07T16:06:46;102768.72;;;8.91;100.00
13015;BME280;6573;57.696;11.950;2024-03-07T16:09:24;102841.31;;;9.40;100.00
13015;BME280;6573;57.696;11.950;2024-03-07T16:11:53;102892.06;;;9.64;100.00
13015;BME280;6573;57.696;11.950;2024-03-07T16:15:08;102854.22;;;9.34;100.00
13015;BME280;6573;57.696;11.950;2024-03-07T16:17:25;102815.16;;;9.18;100.00
13015;BME280;6573;57.696;11.950;2024-03-07T16:20:02;102895.34;;;9.57;100.00
13015;BME280;6573;57.696;11.950;2024-03-07T16:22:51;102791.63;;;8.95;100.00
13015;BME280;6573;57.696;11.950;2024-03-07T16:25:23;102855.31;;;9.40;100.00
13015;BME280;6573;57.696;11.950;2024-03-07T16:27:54;102768.88;;;8.71;100.00
13015;BME280;6573;57.696;11.950;2024-03-07T16:30:27;102893.41;;;9.53;100.00
13015;BME280;6573;57.696;11.950;2024-03-07T16:32:59;102791.38;;;8.89;100.00
13015;BME280;6573;57.696;11.950;2024-03-07T16:35:31;102818.63;;;9.17;100.00
13015;BME280;6573;57.696;11.950;2024-03-07T16:38:15;102814.94;;;9.11;100.00
13015;BME280;6573;57.696;11.950;2024-03-07T16:40:52;102779.00;;;8.85;100.00
13015;BME280;6573;57.696;11.950;2024-03-07T16:43:38;102780.09;;;8.92;100.00
13015;BME280;6573;57.696;11.950;2024-03-07T16:46:10;102890.53;;;9.45;100.00
13015;BME280;6573;57.696;11.950;2024-03-07T16:48:39;102871.03;;;9.39;100.00
13015;BME280;6573;57.696;11.950;2024-03-07T16:51:08;102881.81;;;9.46;100.00
13015;BME280;6573;57.696;11.950;2024-03-07T16:53:37;102889.13;;;9.30;100.00
13015;BME280;6573;57.696;11.950;2024-03-07T16:56:07;102887.47;;;9.33;100.00
13015;BME280;6573;57.696;11.950;2024-03-07T16:58:36;102889.25;;;9.33;100.00
13015;BME280;6573;57.696;11.950;2024-03-07T17:01:05;102799.91;;;8.82;100.00
13015;BME280;6573;57.696;11.950;2024-03-07T17:03:36;102894.41;;;9.31;100.00
13015;BME280;6573;57.696;11.950;2024-03-07T17:06:05;102823.88;;;8.69;100.00
13015;BME280;6573;57.696;11.950;2024-03-07T17:08:36;102897.06;;;9.07;100.00
13015;BME280;6573;57.696;11.950;2024-03-07T17:11:07;102892.97;;;9.16;100.00
13015;BME280;6573;57.696;11.950;2024-03-07T17:13:37;102894.13;;;9.24;100.00
13015;BME280;6573;57.696;11.950;2024-03-07T17:16:11;102881.94;;;9.26;100.00
13015;BME280;6573;57.696;11.950;2024-03-07T17:18:45;102896.56;;;9.18;100.00
13015;BME280;6573;57.696;11.950;2024-03-07T17:21:15;102837.47;;;8.81;100.00
13015;BME280;6573;57.696;11.950;2024-03-07T17:23:44;102879.19;;;8.97;100.00
13015;BME280;6573;57.696;11.950;2024-03-07T17:26:15;102893.47;;;9.05;100.00
13015;BME280;6573;57.696;11.950;2024-03-07T17:28:43;102899.78;;;9.10;100.00
13015;BME280;6573;57.696;11.950;2024-03-07T17:31:12;102892.03;;;9.13;100.00
13015;BME280;6573;57.696;11.950;2024-03-07T17:33:40;102891.81;;;9.07;100.00
13015;BME280;6573;57.696;11.950;2024-03-07T17:36:11;102895.59;;;9.16;100.00
13015;BME280;6573;57.696;11.950;2024-03-07T17:38:40;102898.28;;;9.17;100.00
13015;BME280;6573;57.696;11.950;2024-03-07T17:41:09;102900.00;;;9.17;100.00
13015;BME280;6573;57.696;11.950;2024-03-07T17:43:43;102900.75;;;9.13;100.00
13015;BME280;6573;57.696;11.950;2024-03-07T17:46:13;102873.03;;;8.97;100.00
13015;BME280;6573;57.696;11.950;2024-03-07T17:48:45;102839.75;;;8.72;100.00
13015;BME280;6573;57.696;11.950;2024-03-07T17:51:15;102864.88;;;8.89;100.00
13015;BME280;6573;57.696;11.950;2024-03-07T17:53:44;102895.16;;;9.03;100.00
13015;BME280;6573;57.696;11.950;2024-03-07T17:56:16;102838.06;;;8.74;100.00
13015;BME280;6573;57.696;11.950;2024-03-07T17:58:46;102889.81;;;9.00;100.00
13015;BME280;6573;57.696;11.950;2024-03-07T18:01:14;102814.75;;;8.58;100.00
13015;BME280;6573;57.696;11.950;2024-03-07T18:03:44;102889.56;;;8.94;100.00
13015;BME280;6573;57.696;11.950;2024-03-07T18:06:14;102884.94;;;8.87;100.00
13015;BME280;6573;57.696;11.950;2024-03-07T18:08:43;102836.84;;;8.65;100.00
13015;BME280;6573;57.696;11.950;2024-03-07T18:11:26;102882.06;;;8.81;100.00
13015;BME280;6573;57.696;11.950;2024-03-07T18:14:02;102879.72;;;8.89;100.00
13015;BME280;6573;57.696;11.950;2024-03-07T18:16:33;102882.06;;;8.81;100.00
13015;BME280;6573;57.696;11.950;2024-03-07T18:19:01;102878.38;;;8.76;100.00
13015;BME280;6573;57.696;11.950;2024-03-07T18:21:34;102825.59;;;8.45;100.00
13015;BME280;6573;57.696;11.950;2024-03-07T18:24:05;102841.47;;;8.48;100.00
13015;BME280;6573;57.696;11.950;2024-03-07T18:26:35;102847.88;;;8.56;100.00
13015;BME280;6573;57.696;11.950;2024-03-07T18:29:06;102854.91;;;8.57;100.00
13015;BME280;6573;57.696;11.950;2024-03-07T18:31:35;102868.50;;;8.69;100.00
13015;BME280;6573;57.696;11.950;2024-03-07T18:34:05;102881.63;;;8.69;100.00
13015;BME280;6573;57.696;11.950;2024-03-07T18:36:35;102847.41;;;8.44;100.00
13015;BME280;6573;57.696;11.950;2024-03-07T18:39:05;102886.66;;;8.63;100.00
13015;BME280;6573;57.696;11.950;2024-03-07T18:41:51;102748.81;;;7.81;100.00
13015;BME280;6573;57.696;11.950;2024-03-07T18:44:21;102870.66;;;8.57;100.00
13015;BME280;6573;57.696;11.950;2024-03-07T18:46:51;102876.66;;;8.53;100.00
13015;BME280;6573;57.696;11.950;2024-03-07T18:49:19;102856.66;;;8.34;100.00
13015;BME280;6573;57.696;11.950;2024-03-07T18:51:48;102882.47;;;8.46;100.00
13015;BME280;6573;57.696;11.950;2024-03-07T18:54:20;102834.16;;;8.19;100.00
13015;BME280;6573;57.696;11.950;2024-03-07T18:56:51;102856.28;;;8.25;100.00
13015;BME280;6573;57.696;11.950;2024-03-07T18:59:49;102887.34;;;8.37;100.00
13015;BME280;6573;57.696;11.950;2024-03-07T19:02:18;102885.34;;;8.30;100.00
13015;BME280;6573;57.696;11.950;2024-03-07T19:04:50;102867.41;;;8.20;100.00
13015;BME280;6573;57.696;11.950;2024-03-07T19:07:20;102861.91;;;8.14;100.00
13015;BME280;6573;57.696;11.950;2024-03-07T19:09:49;102881.47;;;8.22;100.00
13015;BME280;6573;57.696;11.950;2024-03-07T19:12:21;102854.25;;;7.96;100.00
13015;BME280;6573;57.696;11.950;2024-03-07T19:14:53;102882.19;;;8.18;100.00
13015;BME280;6573;57.696;11.950;2024-03-07T19:17:22;102836.53;;;7.91;100.00
13015;BME280;6573;57.696;11.950;2024-03-07T19:19:51;102873.72;;;8.03;100.00
13015;BME280;6573;57.696;11.950;2024-03-07T19:22:21;102883.88;;;8.16;100.00
13015;BME280;6573;57.696;11.950;2024-03-07T19:24:49;102833.66;;;7.84;100.00
13015;BME280;6573;57.696;11.950;2024-03-07T19:27:18;102877.00;;;8.19;100.00
13015;BME280;6573;57.696;11.950;2024-03-07T19:29:48;102850.72;;;7.96;100.00
13015;BME280;6573;57.696;11.950;2024-03-07T19:32:23;102879.81;;;8.24;100.00
13015;BME280;6573;57.696;11.950;2024-03-07T19:34:51;102878.41;;;8.32;100.00
13015;BME280;6573;57.696;11.950;2024-03-07T19:37:22;102861.22;;;8.18;100.00
13015;BME280;6573;57.696;11.950;2024-03-07T19:39:51;102855.38;;;8.25;100.00
13015;BME280;6573;57.696;11.950;2024-03-07T19:42:21;102888.00;;;8.31;100.00
13015;BME280;6573;57.696;11.950;2024-03-07T19:44:50;102881.75;;;8.28;100.00
13015;BME280;6573;57.696;11.950;2024-03-07T19:47:23;102878.66;;;8.38;100.00
13015;BME280;6573;57.696;11.950;2024-03-07T19:49:53;102863.72;;;8.15;100.00
13015;BME280;6573;57.696;11.950;2024-03-07T19:52:24;102877.78;;;8.17;100.00
13015;BME280;6573;57.696;11.950;2024-03-07T19:54:56;102785.69;;;7.44;100.00
13015;BME280;6573;57.696;11.950;2024-03-07T19:57:32;102872.50;;;7.95;100.00
13015;BME280;6573;57.696;11.950;2024-03-07T20:00:04;102822.31;;;7.63;100.00
13015;BME280;6573;57.696;11.950;2024-03-07T20:02:45;102809.84;;;7.58;100.00
13015;BME280;6573;57.696;11.950;2024-03-07T20:05:14;102857.38;;;7.88;100.00
13015;BME280;6573;57.696;11.950;2024-03-07T20:07:52;102880.84;;;8.07;100.00
13015;BME280;6573;57.696;11.950;2024-03-07T20:10:24;102836.63;;;7.71;100.00
13015;BME280;6573;57.696;11.950;2024-03-07T20:12:54;102791.06;;;7.47;100.00
13015;BME280;6573;57.696;11.950;2024-03-07T20:15:26;102839.78;;;7.85;100.00
13015;BME280;6573;57.696;11.950;2024-03-07T20:17:59;102812.28;;;7.53;100.00
13015;BME280;6573;57.696;11.950;2024-03-07T20:20:29;102851.63;;;7.75;100.00
13015;BME280;6573;57.696;11.950;2024-03-07T20:22:59;102785.34;;;7.35;100.00
13015;BME280;6573;57.696;11.950;2024-03-07T20:25:29;102861.56;;;7.84;100.00
13015;BME280;6573;57.696;11.950;2024-03-07T20:28:00;102835.78;;;7.72;100.00
13015;BME280;6573;57.696;11.950;2024-03-07T20:30:34;102859.41;;;7.95;100.00
13015;BME280;6573;57.696;11.950;2024-03-07T20:33:06;102870.66;;;7.92;100.00
13015;BME280;6573;57.696;11.950;2024-03-07T20:35:36;102814.47;;;7.63;100.00
13015;BME280;6573;57.696;11.950;2024-03-07T20:38:08;102858.28;;;7.67;100.00
13015;BME280;6573;57.696;11.950;2024-03-07T20:40:43;102772.56;;;7.22;100.00
13015;BME280;6573;57.696;11.950;2024-03-07T20:43:24;102844.59;;;7.74;100.00
13015;BME280;6573;57.696;11.950;2024-03-07T20:45:56;102859.00;;;7.63;100.00
13015;BME280;6573;57.696;11.950;2024-03-07T20:48:31;102848.84;;;7.71;100.00
13015;BME280;6573;57.696;11.950;2024-03-07T20:51:00;102770.69;;;7.19;100.00
13015;BME280;6573;57.696;11.950;2024-03-07T20:53:32;102850.50;;;7.48;100.00
13015;BME280;6573;57.696;11.950;2024-03-07T20:56:03;102834.66;;;7.45;100.00
13015;BME280;6573;57.696;11.950;2024-03-07T20:58:34;102849.19;;;7.59;100.00
13015;BME280;6573;57.696;11.950;2024-03-07T21:01:04;102749.38;;;6.90;100.00
13015;BME280;6573;57.696;11.950;2024-03-07T21:03:40;102845.38;;;7.51;100.00
13015;BME280;6573;57.696;11.950;2024-03-07T21:06:09;102856.50;;;7.66;100.00
13015;BME280;6573;57.696;11.950;2024-03-07T21:08:39;102825.56;;;7.58;100.00
13015;BME280;6573;57.696;11.950;2024-03-07T21:11:09;102758.38;;;7.17;100.00
13015;BME280;6573;57.696;11.950;2024-03-07T21:13:39;102849.84;;;7.74;100.00
13015;BME280;6573;57.696;11.950;2024-03-07T21:16:08;102736.84;;;7.02;100.00
13015;BME280;6573;57.696;11.950;2024-03-07T21:18:42;102827.44;;;7.60;100.00
13015;BME280;6573;57.696;11.950;2024-03-07T21:21:11;102817.53;;;7.53;100.00
13015;BME280;6573;57.696;11.950;2024-03-07T21:23:40;102819.44;;;7.57;100.00
13015;BME280;6573;57.696;11.950;2024-03-07T21:26:09;102842.69;;;7.70;100.00
13015;BME280;6573;57.696;11.950;2024-03-07T21:28:39;102831.72;;;7.58;100.00
13015;BME280;6573;57.696;11.950;2024-03-07T21:31:08;102839.88;;;7.45;100.00
13015;BME280;6573;57.696;11.950;2024-03-07T21:33:38;102828.09;;;7.15;100.00
13015;BME280;6573;57.696;11.950;2024-03-07T21:36:09;102819.81;;;7.04;100.00
13015;BME280;6573;57.696;11.950;2024-03-07T21:38:38;102835.00;;;7.13;100.00
13015;BME280;6573;57.696;11.950;2024-03-07T21:41:07;102836.38;;;7.05;100.00
13015;BME280;6573;57.696;11.950;2024-03-07T21:43:40;102818.38;;;6.92;100.00
13015;BME280;6573;57.696;11.950;2024-03-07T21:46:09;102817.94;;;6.83;100.00
13015;BME280;6573;57.696;11.950;2024-03-07T21:48:40;102836.75;;;6.93;100.00
13015;BME280;6573;57.696;11.950;2024-03-07T21:51:11;102749.50;;;6.53;100.00
13015;BME280;6573;57.696;11.950;2024-03-07T21:53:40;102779.41;;;6.79;100.00
13015;BME280;6573;57.696;11.950;2024-03-07T21:56:12;102825.91;;;7.05;100.00
13015;BME280;6573;57.696;11.950;2024-03-07T21:58:40;102721.78;;;6.37;100.00
13015;BME280;6573;57.696;11.950;2024-03-07T22:01:09;102823.31;;;6.86;100.00
13015;BME280;6573;57.696;11.950;2024-03-07T22:03:39;102825.13;;;6.87;100.00
13015;BME280;6573;57.696;11.950;2024-03-07T22:06:11;102828.56;;;6.86;100.00
13015;BME280;6573;57.696;11.950;2024-03-07T22:08:40;102789.06;;;6.61;100.00
13015;BME280;6573;57.696;11.950;2024-03-07T22:11:13;102765.25;;;6.35;100.00
13015;BME280;6573;57.696;11.950;2024-03-07T22:13:42;102817.91;;;6.62;100.00
13015;BME280;6573;57.696;11.950;2024-03-07T22:16:11;102794.28;;;6.41;100.00
13015;BME280;6573;57.696;11.950;2024-03-07T22:18:40;102818.38;;;6.53;100.00
13015;BME280;6573;57.696;11.950;2024-03-07T22:21:11;102819.06;;;6.49;100.00
13015;BME280;6573;57.696;11.950;2024-03-07T22:23:39;102821.25;;;6.40;100.00
13015;BME280;6573;57.696;11.950;2024-03-07T22:26:10;102807.06;;;6.35;100.00
13015;BME280;6573;57.696;11.950;2024-03-07T22:28:39;102827.22;;;6.38;100.00
13015;BME280;6573;57.696;11.950;2024-03-07T22:31:07;102752.69;;;5.90;100.00
13015;BME280;6573;57.696;11.950;2024-03-07T22:33:36;102806.63;;;6.07;100.00
13015;BME280;6573;57.696;11.950;2024-03-07T22:36:06;102826.69;;;6.08;100.00
13015;BME280;6573;57.696;11.950;2024-03-07T22:38:37;102819.66;;;6.25;100.00
13015;BME280;6573;57.696;11.950;2024-03-07T22:41:06;102772.97;;;5.78;100.00
13015;BME280;6573;57.696;11.950;2024-03-07T22:43:34;102814.31;;;6.04;100.00
13015;BME280;6573;57.696;11.950;2024-03-07T22:46:04;102816.13;;;6.05;100.00
13015;BME280;6573;57.696;11.950;2024-03-07T22:48:34;102823.41;;;6.12;100.00
13015;BME280;6573;57.696;11.950;2024-03-07T22:51:03;102776.06;;;5.87;100.00
13015;BME280;6573;57.696;11.950;2024-03-07T22:53:33;102806.84;;;6.12;100.00
13015;BME280;6573;57.696;11.950;2024-03-07T22:56:03;102783.41;;;5.96;100.00
13015;BME280;6573;57.696;11.950;2024-03-07T22:58:32;102812.41;;;6.00;100.00
13015;BME280;6573;57.696;11.950;2024-03-07T23:01:00;102809.25;;;5.90;100.00
13015;BME280;6573;57.696;11.950;2024-03-07T23:03:31;102794.84;;;5.80;100.00
13015;BME280;6573;57.696;11.950;2024-03-07T23:06:00;102810.59;;;5.99;100.00
13015;BME280;6573;57.696;11.950;2024-03-07T23:08:28;102681.56;;;5.23;100.00
13015;BME280;6573;57.696;11.950;2024-03-07T23:10:56;102803.44;;;5.95;100.00
13015;BME280;6573;57.696;11.950;2024-03-07T23:13:27;102810.06;;;6.25;100.00
13015;BME280;6573;57.696;11.950;2024-03-07T23:15:56;102798.47;;;6.19;100.00
13015;BME280;6573;57.696;11.950;2024-03-07T23:18:24;102787.88;;;5.98;100.00
13015;BME280;6573;57.696;11.950;2024-03-07T23:20:53;102802.97;;;5.86;100.00
13015;BME280;6573;57.696;11.950;2024-03-07T23:23:23;102803.66;;;6.00;100.00
13015;BME280;6573;57.696;11.950;2024-03-07T23:25:51;102790.97;;;5.72;100.00
13015;BME280;6573;57.696;11.950;2024-03-07T23:28:20;102802.78;;;5.83;100.00
13015;BME280;6573;57.696;11.950;2024-03-07T23:30:51;102752.16;;;5.62;100.00
13015;BME280;6573;57.696;11.950;2024-03-07T23:33:20;102786.84;;;5.77;100.00
13015;BME280;6573;57.696;11.950;2024-03-07T23:35:49;102761.97;;;5.48;100.00
13015;BME280;6573;57.696;11.950;2024-03-07T23:38:18;102790.38;;;5.60;100.00
13015;BME280;6573;57.696;11.950;2024-03-07T23:40:48;102738.59;;;5.34;100.00
13015;BME280;6573;57.696;11.950;2024-03-07T23:43:17;102785.50;;;5.50;100.00
13015;BME280;6573;57.696;11.950;2024-03-07T23:45:46;102740.91;;;5.28;100.00
13015;BME280;6573;57.696;11.950;2024-03-07T23:48:16;102772.63;;;5.53;100.00
13015;BME280;6573;57.696;11.950;2024-03-07T23:50:45;102766.28;;;5.48;100.00
13015;BME280;6573;57.696;11.950;2024-03-07T23:53:14;102738.38;;;5.29;100.00
13015;BME280;6573;57.696;11.950;2024-03-07T23:55:43;102766.81;;;5.41;100.00
13015;BME280;6573;57.696;11.950;2024-03-07T23:58:12;102761.50;;;5.39;100.00
